Ainsworth, Nebraska
Current Conditions -  °F | °C
As of 11:55 PM on Friday 19 Dec 2014 (Local Time) from KANW Reporting Station
Clear Clear  
Wind Chill: -12°   Ceiling: Unl
Heat Index: -7°   Visibility: 10mi
Dew Point: -8°   Wind: 7mph
Humidity: 89%   Direction: 260°W
Pressure: 29.98"   Gusts: NA
Location:  42.55°N, 99.86°W
Report Text: KANW 200555Z AUTO 26006KT 10SM CLR M07/M08 A2998 RMK AO2 T10661081 11045 21084 400061115
Loading
Personal Weather Stations






























Interactive Weather Map New forecast layout! Learn more

10-Day Weather Forecast

Advertisements
Track Severe Weather on mobile